Durant, OK

11:48 AM CST on February 12, 2016 (GMT -0600)
Ridgemont Estate | | Change Station
CLOSE
Current Station
Personal Weather Station
Location: Durant, OK
Elevation: 689 ft
Nearby Weather Stations

Elev 689 ft 34.02 °N, 96.40 °W | Updated 22 seconds ago

Clear
Clear
61.3 °F
Feels Like 61.3 °F
N
8.3
Wind Variable Wind from NW
Gusts 526.9 mph

Today
High -- | Low -- °F
--% Chance of Precip.
Yesterday
High -- | Low -- °F
Precip. -- in
Pressure 30.32 in
Visibility 10.0 miles
Clouds Clear
Dew Point 32 °F
Humidity 33%
Rainfall 0.00 in
Snow Depth Not available.
7:13 AM 6:06 PM
Waxing Crescent, 22% visible
METAR KDUA 121735Z AUTO 02006KT 10SM CLR 16/01 A3032 RMK AO2
Pressure 30.32 in
Visibility 10.0 miles
Clouds Clear
Dew Point 32 °F
Humidity 33%
Rainfall 0.00 in
Snow Depth Not available.
7:13 AM 6:06 PM
Waxing Crescent, 22% visible
METAR KDUA 121735Z AUTO 02006KT 10SM CLR 16/01 A3032 RMK AO2

10-Day Weather Forecast

Almanac

Astronomy

Feb. 12, 2016 Rise Set
Actual Time
Civil Twilight
Nautical Twilight
Astronomical Twilight
Moon
Length of Visible Light
Length of Day
Tomorrow will be .
, % of the Moon is Illuminated

Today's Extremes

State Highs State Lows

Community

WunderPhotos

Upload Photos

1,892,354 photos uploaded!

WunderBlog® & News

Nearby

Air Quality

  Air Quality AQ Index Pollutant
Not available.

Snow Depth

Station Depth Elevation

Earthquake Activity

City Distance Mag. Time & Date
Minimum magnitude displayed is 2.5.

Coastal Water Temperatures

Place Temperature

Stations

Nearby Weather Stations

Station Location Temp. Windchill Dew Point Humidity Wind Precip. Elev Updated Type
                   

Watches & Warnings

There are currently no watches in effect.